sensor_id;sensor_type;location;lat;lon;timestamp;pressure;altitude;pressure_sealevel;temperature;humidity
61571;BME280;47463;49.884;10.010;2023-06-22T00:00:01;101920;;;18.9;86
61571;BME280;47463;49.884;10.010;2023-06-22T00:05:01;101930;;;18.7;86
61571;BME280;47463;49.884;10.010;2023-06-22T00:10:01;101950;;;18.6;87
61571;BME280;47463;49.884;10.010;2023-06-22T00:15:01;101950;;;18.7;87
61571;BME280;47463;49.884;10.010;2023-06-22T00:20:01;101950;;;18.8;87
61571;BME280;47463;49.884;10.010;2023-06-22T00:25:01;101920;;;18.7;87
61571;BME280;47463;49.884;10.010;2023-06-22T00:30:01;101890;;;18.8;87
61571;BME280;47463;49.884;10.010;2023-06-22T00:35:01;101890;;;18.9;87
61571;BME280;47463;49.884;10.010;2023-06-22T00:40:04;101850;;;19.1;87
61571;BME280;47463;49.884;10.010;2023-06-22T00:45:01;101810;;;19.1;86
61571;BME280;47463;49.884;10.010;2023-06-22T00:50:01;101790;;;19.1;86
61571;BME280;47463;49.884;10.010;2023-06-22T00:55:01;101790;;;18.9;86
61571;BME280;47463;49.884;10.010;2023-06-22T01:00:01;101780;;;18.9;86
61571;BME280;47463;49.884;10.010;2023-06-22T01:05:01;101800;;;19;86
61571;BME280;47463;49.884;10.010;2023-06-22T01:10:03;101810;;;19;86
61571;BME280;47463;49.884;10.010;2023-06-22T01:15:02;101810;;;18.9;86
61571;BME280;47463;49.884;10.010;2023-06-22T01:20:01;101810;;;18.9;86
61571;BME280;47463;49.884;10.010;2023-06-22T01:25:04;101810;;;18.9;86
61571;BME280;47463;49.884;10.010;2023-06-22T01:30:01;101810;;;18.8;86
61571;BME280;47463;49.884;10.010;2023-06-22T01:35:01;101810;;;18.7;86
61571;BME280;47463;49.884;10.010;2023-06-22T01:40:01;101820;;;18.7;86
61571;BME280;47463;49.884;10.010;2023-06-22T01:45:01;101820;;;18.7;86
61571;BME280;47463;49.884;10.010;2023-06-22T01:50:01;101850;;;18.8;86
61571;BME280;47463;49.884;10.010;2023-06-22T01:55:01;101890;;;18.9;86
61571;BME280;47463;49.884;10.010;2023-06-22T02:00:02;101920;;;18.9;86
61571;BME280;47463;49.884;10.010;2023-06-22T02:05:02;101960;;;19.2;85
61571;BME280;47463;49.884;10.010;2023-06-22T02:10:01;102040;;;19.4;84
61571;BME280;47463;49.884;10.010;2023-06-22T02:15:01;102110;;;19.4;84
61571;BME280;47463;49.884;10.010;2023-06-22T02:20:01;102150;;;19.2;85
61571;BME280;47463;49.884;10.010;2023-06-22T02:25:01;102160;;;19.1;86
61571;BME280;47463;49.884;10.010;2023-06-22T02:30:01;102150;;;19;87
61571;BME280;47463;49.884;10.010;2023-06-22T02:35:01;102150;;;18.9;87
61571;BME280;47463;49.884;10.010;2023-06-22T02:40:01;102110;;;18.8;88
61571;BME280;47463;49.884;10.010;2023-06-22T02:45:01;102030;;;18.7;88
61571;BME280;47463;49.884;10.010;2023-06-22T02:50:01;101850;;;18.6;89
61571;BME280;47463;49.884;10.010;2023-06-22T02:55:01;101670;;;18.7;89
61571;BME280;47463;49.884;10.010;2023-06-22T03:00:02;101680;;;18.8;89
61571;BME280;47463;49.884;10.010;2023-06-22T03:05:01;101680;;;18.8;88
61571;BME280;47463;49.884;10.010;2023-06-22T03:10:01;101730;;;18.9;88
61571;BME280;47463;49.884;10.010;2023-06-22T03:15:01;101730;;;18.9;88
61571;BME280;47463;49.884;10.010;2023-06-22T03:20:01;101760;;;18.9;88
61571;BME280;47463;49.884;10.010;2023-06-22T03:25:01;101800;;;18.8;88
61571;BME280;47463;49.884;10.010;2023-06-22T03:30:01;101800;;;18.8;89
61571;BME280;47463;49.884;10.010;2023-06-22T03:35:01;101820;;;18.8;89
61571;BME280;47463;49.884;10.010;2023-06-22T03:40:01;101820;;;18.9;89
61571;BME280;47463;49.884;10.010;2023-06-22T03:45:01;101850;;;18.9;88
61571;BME280;47463;49.884;10.010;2023-06-22T03:50:01;101850;;;19;88
61571;BME280;47463;49.884;10.010;2023-06-22T03:55:01;101850;;;18.9;88
61571;BME280;47463;49.884;10.010;2023-06-22T04:00:01;101850;;;18.9;88
61571;BME280;47463;49.884;10.010;2023-06-22T04:05:01;101860;;;18.9;89
61571;BME280;47463;49.884;10.010;2023-06-22T04:10:01;101850;;;18.9;89
61571;BME280;47463;49.884;10.010;2023-06-22T04:15:01;101840;;;18.9;89
61571;BME280;47463;49.884;10.010;2023-06-22T04:20:01;101840;;;18.9;89
61571;BME280;47463;49.884;10.010;2023-06-22T04:25:01;101840;;;18.9;89
61571;BME280;47463;49.884;10.010;2023-06-22T04:30:01;101830;;;19;89
61571;BME280;47463;49.884;10.010;2023-06-22T04:35:01;101830;;;19.2;88
61571;BME280;47463;49.884;10.010;2023-06-22T04:40:01;101830;;;19.4;87
61571;BME280;47463;49.884;10.010;2023-06-22T04:45:01;101850;;;19.7;87
61571;BME280;47463;49.884;10.010;2023-06-22T04:50:01;101830;;;19.7;86
61571;BME280;47463;49.884;10.010;2023-06-22T04:55:01;101830;;;19.8;86
61571;BME280;47463;49.884;10.010;2023-06-22T05:00:01;101830;;;19.9;85
61571;BME280;47463;49.884;10.010;2023-06-22T05:05:01;101830;;;20.1;85
61571;BME280;47463;49.884;10.010;2023-06-22T05:10:01;101820;;;20.2;84
61571;BME280;47463;49.884;10.010;2023-06-22T05:15:01;101830;;;20.3;84
61571;BME280;47463;49.884;10.010;2023-06-22T05:20:01;101830;;;20.5;84
61571;BME280;47463;49.884;10.010;2023-06-22T05:25:01;101820;;;20.5;84
61571;BME280;47463;49.884;10.010;2023-06-22T05:30:01;101820;;;20.6;83
61571;BME280;47463;49.884;10.010;2023-06-22T05:35:01;101810;;;20.7;83
61571;BME280;47463;49.884;10.010;2023-06-22T05:40:01;101810;;;20.8;82
61571;BME280;47463;49.884;10.010;2023-06-22T05:45:01;101800;;;21;81
61571;BME280;47463;49.884;10.010;2023-06-22T05:50:01;101800;;;21.2;81
61571;BME280;47463;49.884;10.010;2023-06-22T05:55:01;101810;;;21.2;80
61571;BME280;47463;49.884;10.010;2023-06-22T06:00:01;101810;;;21.6;80
61571;BME280;47463;49.884;10.010;2023-06-22T06:05:01;101810;;;21.6;79
61571;BME280;47463;49.884;10.010;2023-06-22T06:10:01;101820;;;21.8;79
61571;BME280;47463;49.884;10.010;2023-06-22T06:15:01;101820;;;22.2;78
61571;BME280;47463;49.884;10.010;2023-06-22T06:20:01;101810;;;22.1;78
61571;BME280;47463;49.884;10.010;2023-06-22T06:25:01;101800;;;21.9;78
61571;BME280;47463;49.884;10.010;2023-06-22T06:30:01;101790;;;22.1;78
61571;BME280;47463;49.884;10.010;2023-06-22T06:35:01;101780;;;22;76
61571;BME280;47463;49.884;10.010;2023-06-22T06:40:01;101780;;;22.3;76
61571;BME280;47463;49.884;10.010;2023-06-22T06:45:01;101770;;;22.4;76
61571;BME280;47463;49.884;10.010;2023-06-22T06:50:01;101760;;;22.7;76
61571;BME280;47463;49.884;10.010;2023-06-22T06:55:01;101760;;;22.9;75
61571;BME280;47463;49.884;10.010;2023-06-22T07:00:01;101750;;;23;74
61571;BME280;47463;49.884;10.010;2023-06-22T07:05:01;101750;;;23.1;73
61571;BME280;47463;49.884;10.010;2023-06-22T07:10:01;101750;;;23;73
61571;BME280;47463;49.884;10.010;2023-06-22T07:15:02;101760;;;22.8;72
61571;BME280;47463;49.884;10.010;2023-06-22T07:20:01;101750;;;22.9;73
61571;BME280;47463;49.884;10.010;2023-06-22T07:25:01;101750;;;23.1;73
61571;BME280;47463;49.884;10.010;2023-06-22T07:30:01;101740;;;23;72
61571;BME280;47463;49.884;10.010;2023-06-22T07:35:01;101740;;;23.2;71
61571;BME280;47463;49.884;10.010;2023-06-22T07:40:01;101740;;;23.4;71
61571;BME280;47463;49.884;10.010;2023-06-22T07:45:01;101740;;;23.6;70
61571;BME280;47463;49.884;10.010;2023-06-22T07:50:01;101720;;;23.9;69
61571;BME280;47463;49.884;10.010;2023-06-22T07:55:01;101710;;;23.8;69
61571;BME280;47463;49.884;10.010;2023-06-22T08:00:01;101710;;;24.3;68
61571;BME280;47463;49.884;10.010;2023-06-22T08:05:01;101710;;;24.2;68
61571;BME280;47463;49.884;10.010;2023-06-22T08:10:01;101710;;;24.4;67
61571;BME280;47463;49.884;10.010;2023-06-22T08:15:01;101700;;;24.7;66
61571;BME280;47463;49.884;10.010;2023-06-22T08:20:01;101700;;;24.4;66
61571;BME280;47463;49.884;10.010;2023-06-22T08:25:01;101690;;;24.7;66
61571;BME280;47463;49.884;10.010;2023-06-22T08:30:01;101690;;;24.8;66
61571;BME280;47463;49.884;10.010;2023-06-22T08:35:01;101670;;;24.7;66
61571;BME280;47463;49.884;10.010;2023-06-22T08:40:01;101670;;;25.3;64
61571;BME280;47463;49.884;10.010;2023-06-22T08:45:01;101660;;;25.8;61
61571;BME280;47463;49.884;10.010;2023-06-22T08:50:01;101660;;;26.3;59
61571;BME280;47463;49.884;10.010;2023-06-22T08:55:01;101660;;;25.8;58
61571;BME280;47463;49.884;10.010;2023-06-22T09:00:01;101650;;;26.1;57
61571;BME280;47463;49.884;10.010;2023-06-22T09:05:02;101640;;;26.2;57
61571;BME280;47463;49.884;10.010;2023-06-22T09:10:01;101640;;;26.1;57
61571;BME280;47463;49.884;10.010;2023-06-22T09:15:01;101650;;;26.4;55
61571;BME280;47463;49.884;10.010;2023-06-22T09:20:01;101650;;;26.4;55
61571;BME280;47463;49.884;10.010;2023-06-22T09:25:01;101640;;;26.5;55
61571;BME280;47463;49.884;10.010;2023-06-22T09:30:01;101640;;;26.4;55
61571;BME280;47463;49.884;10.010;2023-06-22T09:35:01;101630;;;26.8;54
61571;BME280;47463;49.884;10.010;2023-06-22T09:40:01;101620;;;27;53
61571;BME280;47463;49.884;10.010;2023-06-22T09:45:01;101630;;;27.3;52
61571;BME280;47463;49.884;10.010;2023-06-22T09:50:01;101630;;;27.5;52
61571;BME280;47463;49.884;10.010;2023-06-22T09:55:01;101620;;;27.6;50
61571;BME280;47463;49.884;10.010;2023-06-22T10:00:01;101600;;;27.5;50
61571;BME280;47463;49.884;10.010;2023-06-22T10:05:01;101610;;;27.7;50
61571;BME280;47463;49.884;10.010;2023-06-22T10:10:01;101600;;;27.6;50
61571;BME280;47463;49.884;10.010;2023-06-22T10:15:01;101600;;;28;48
61571;BME280;47463;49.884;10.010;2023-06-22T10:20:01;101600;;;28.6;47
61571;BME280;47463;49.884;10.010;2023-06-22T10:25:01;101580;;;28.3;46
61571;BME280;47463;49.884;10.010;2023-06-22T10:30:01;101590;;;28.6;46
61571;BME280;47463;49.884;10.010;2023-06-22T10:35:01;101570;;;28.7;46
61571;BME280;47463;49.884;10.010;2023-06-22T10:40:01;101560;;;28.6;45
61571;BME280;47463;49.884;10.010;2023-06-22T10:45:01;101550;;;28.5;45
61571;BME280;47463;49.884;10.010;2023-06-22T10:50:01;101550;;;28.9;45
61571;BME280;47463;49.884;10.010;2023-06-22T10:55:01;101540;;;28.6;45
61571;BME280;47463;49.884;10.010;2023-06-22T11:00:01;101530;;;28.8;46
61571;BME280;47463;49.884;10.010;2023-06-22T11:05:01;101520;;;29;44
61571;BME280;47463;49.884;10.010;2023-06-22T11:10:01;101530;;;28.9;44
61571;BME280;47463;49.884;10.010;2023-06-22T11:15:01;101510;;;29.1;44
61571;BME280;47463;49.884;10.010;2023-06-22T11:20:01;101510;;;29.4;44
61571;BME280;47463;49.884;10.010;2023-06-22T11:25:01;101500;;;29.5;43
61571;BME280;47463;49.884;10.010;2023-06-22T11:30:01;101490;;;29.2;43
61571;BME280;47463;49.884;10.010;2023-06-22T11:35:01;101490;;;29.4;43
61571;BME280;47463;49.884;10.010;2023-06-22T11:40:01;101480;;;29.5;43
61571;BME280;47463;49.884;10.010;2023-06-22T11:45:01;101470;;;29.8;42
61571;BME280;47463;49.884;10.010;2023-06-22T11:50:01;101460;;;29.7;42
61571;BME280;47463;49.884;10.010;2023-06-22T11:55:01;101440;;;29.8;42
61571;BME280;47463;49.884;10.010;2023-06-22T12:00:01;101430;;;30.2;42
61571;BME280;47463;49.884;10.010;2023-06-22T12:05:01;101430;;;30.2;42
61571;BME280;47463;49.884;10.010;2023-06-22T12:10:01;101420;;;30.2;41
61571;BME280;47463;49.884;10.010;2023-06-22T12:15:01;101400;;;30.3;41
61571;BME280;47463;49.884;10.010;2023-06-22T12:20:01;101400;;;30.2;41
61571;BME280;47463;49.884;10.010;2023-06-22T12:25:01;101380;;;30.1;41
61571;BME280;47463;49.884;10.010;2023-06-22T12:30:01;101390;;;30.2;42
61571;BME280;47463;49.884;10.010;2023-06-22T12:35:01;101370;;;30.3;41
61571;BME280;47463;49.884;10.010;2023-06-22T12:40:01;101380;;;30.3;41
61571;BME280;47463;49.884;10.010;2023-06-22T12:45:01;101370;;;30.3;41
61571;BME280;47463;49.884;10.010;2023-06-22T12:50:01;101350;;;30.4;42
61571;BME280;47463;49.884;10.010;2023-06-22T12:55:01;101360;;;30.5;41
61571;BME280;47463;49.884;10.010;2023-06-22T13:00:01;101370;;;30.5;40
61571;BME280;47463;49.884;10.010;2023-06-22T13:05:01;101370;;;30.7;41
61571;BME280;47463;49.884;10.010;2023-06-22T13:10:01;101360;;;30.6;41
61571;BME280;47463;49.884;10.010;2023-06-22T13:15:01;101370;;;30.5;42
61571;BME280;47463;49.884;10.010;2023-06-22T13:20:01;101360;;;30.4;41
61571;BME280;47463;49.884;10.010;2023-06-22T13:25:01;101350;;;30.3;43
61571;BME280;47463;49.884;10.010;2023-06-22T13:30:01;101330;;;30.6;44
61571;BME280;47463;49.884;10.010;2023-06-22T13:35:01;101340;;;31;42
61571;BME280;47463;49.884;10.010;2023-06-22T13:40:01;101340;;;31;42
61571;BME280;47463;49.884;10.010;2023-06-22T13:45:01;101350;;;30.5;43
61571;BME280;47463;49.884;10.010;2023-06-22T13:50:01;101370;;;30.3;44
61571;BME280;47463;49.884;10.010;2023-06-22T13:55:01;101370;;;30.2;44
61571;BME280;47463;49.884;10.010;2023-06-22T14:00:01;101350;;;30.4;46
61571;BME280;47463;49.884;10.010;2023-06-22T14:05:01;101340;;;30.8;45
61571;BME280;47463;49.884;10.010;2023-06-22T14:10:01;101310;;;30.6;43
61571;BME280;47463;49.884;10.010;2023-06-22T14:15:01;101300;;;30.6;42
61571;BME280;47463;49.884;10.010;2023-06-22T14:20:01;101290;;;30.7;42
61571;BME280;47463;49.884;10.010;2023-06-22T14:25:01;101290;;;30.9;42
61571;BME280;47463;49.884;10.010;2023-06-22T14:30:01;101280;;;30.8;43
61571;BME280;47463;49.884;10.010;2023-06-22T14:35:01;101270;;;30.8;43
61571;BME280;47463;49.884;10.010;2023-06-22T14:40:01;101260;;;31.1;43
61571;BME280;47463;49.884;10.010;2023-06-22T14:45:01;101250;;;31.6;41
61571;BME280;47463;49.884;10.010;2023-06-22T14:50:01;101230;;;31.5;42
61571;BME280;47463;49.884;10.010;2023-06-22T14:55:01;101240;;;31.6;41
61571;BME280;47463;49.884;10.010;2023-06-22T15:00:01;101230;;;31.4;42
61571;BME280;47463;49.884;10.010;2023-06-22T15:05:01;101220;;;31.5;41
61571;BME280;47463;49.884;10.010;2023-06-22T15:10:01;101210;;;31.6;40
61571;BME280;47463;49.884;10.010;2023-06-22T15:15:01;101210;;;31.7;40
61571;BME280;47463;49.884;10.010;2023-06-22T15:20:02;101170;;;32.4;40
61571;BME280;47463;49.884;10.010;2023-06-22T15:25:01;101150;;;32.6;39
61571;BME280;47463;49.884;10.010;2023-06-22T15:30:01;101130;;;32.8;38
61571;BME280;47463;49.884;10.010;2023-06-22T15:35:01;101120;;;32.8;38
61571;BME280;47463;49.884;10.010;2023-06-22T15:40:01;101120;;;32.5;38
61571;BME280;47463;49.884;10.010;2023-06-22T15:45:01;101110;;;32;38
61571;BME280;47463;49.884;10.010;2023-06-22T15:50:01;101110;;;31.6;38
61571;BME280;47463;49.884;10.010;2023-06-22T15:55:01;101110;;;31.5;39
61571;BME280;47463;49.884;10.010;2023-06-22T16:00:01;101110;;;31.6;38
61571;BME280;47463;49.884;10.010;2023-06-22T16:05:01;101120;;;31.3;37
61571;BME280;47463;49.884;10.010;2023-06-22T16:10:01;101110;;;31;37
61571;BME280;47463;49.884;10.010;2023-06-22T16:15:01;101130;;;30.8;38
61571;BME280;47463;49.884;10.010;2023-06-22T16:20:01;101130;;;30.6;38
61571;BME280;47463;49.884;10.010;2023-06-22T16:25:01;101130;;;30.3;38
61571;BME280;47463;49.884;10.010;2023-06-22T16:30:01;101140;;;30.2;38
61571;BME280;47463;49.884;10.010;2023-06-22T16:35:01;101150;;;30.3;38
61571;BME280;47463;49.884;10.010;2023-06-22T16:40:01;101140;;;30.2;38
61571;BME280;47463;49.884;10.010;2023-06-22T16:45:01;101130;;;30;39
61571;BME280;47463;49.884;10.010;2023-06-22T16:50:01;101120;;;30;39
61571;BME280;47463;49.884;10.010;2023-06-22T16:55:01;101120;;;29.9;39
61571;BME280;47463;49.884;10.010;2023-06-22T17:00:01;101120;;;29.9;39
61571;BME280;47463;49.884;10.010;2023-06-22T17:05:01;101130;;;29.7;40
61571;BME280;47463;49.884;10.010;2023-06-22T17:10:01;101140;;;29.6;40
61571;BME280;47463;49.884;10.010;2023-06-22T17:15:01;101130;;;29.5;40
61571;BME280;47463;49.884;10.010;2023-06-22T17:20:01;101130;;;29.2;40
61571;BME280;47463;49.884;10.010;2023-06-22T17:25:01;101110;;;29.2;40
61571;BME280;47463;49.884;10.010;2023-06-22T17:30:05;101110;;;28.9;41
61571;BME280;47463;49.884;10.010;2023-06-22T17:35:01;101120;;;28.8;41
61571;BME280;47463;49.884;10.010;2023-06-22T17:40:01;101120;;;28.7;41
61571;BME280;47463;49.884;10.010;2023-06-22T17:45:01;101120;;;28.6;41
61571;BME280;47463;49.884;10.010;2023-06-22T17:50:04;101120;;;28.7;40
61571;BME280;47463;49.884;10.010;2023-06-22T17:55:01;101120;;;28.7;40
61571;BME280;47463;49.884;10.010;2023-06-22T18:00:01;101130;;;28.6;40
61571;BME280;47463;49.884;10.010;2023-06-22T18:05:02;101120;;;28.5;41
61571;BME280;47463;49.884;10.010;2023-06-22T18:10:01;101110;;;28.4;41
61571;BME280;47463;49.884;10.010;2023-06-22T18:15:01;101120;;;28.4;41
61571;BME280;47463;49.884;10.010;2023-06-22T18:20:01;101140;;;28.3;41
61571;BME280;47463;49.884;10.010;2023-06-22T18:25:01;101150;;;28.1;42
61571;BME280;47463;49.884;10.010;2023-06-22T18:30:01;101150;;;27.9;43
61571;BME280;47463;49.884;10.010;2023-06-22T18:35:01;101160;;;27.8;44
61571;BME280;47463;49.884;10.010;2023-06-22T18:40:01;101150;;;27.5;44
61571;BME280;47463;49.884;10.010;2023-06-22T18:45:01;101160;;;27.5;44
61571;BME280;47463;49.884;10.010;2023-06-22T18:50:03;101160;;;27.4;45
61571;BME280;47463;49.884;10.010;2023-06-22T18:55:01;101160;;;27.2;46
61571;BME280;47463;49.884;10.010;2023-06-22T19:00:01;101140;;;27.2;46
61571;BME280;47463;49.884;10.010;2023-06-22T19:05:08;101120;;;27;47
61571;BME280;47463;49.884;10.010;2023-06-22T19:10:20;101110;;;26.9;47
61571;BME280;47463;49.884;10.010;2023-06-22T19:15:02;101110;;;26.7;48
61571;BME280;47463;49.884;10.010;2023-06-22T19:20:01;101120;;;26.5;50
61571;BME280;47463;49.884;10.010;2023-06-22T19:25:01;101110;;;26.2;50
61571;BME280;47463;49.884;10.010;2023-06-22T19:30:01;101110;;;26.1;51
61571;BME280;47463;49.884;10.010;2023-06-22T19:35:01;101130;;;26;51
61571;BME280;47463;49.884;10.010;2023-06-22T19:40:01;101100;;;25.9;52
61571;BME280;47463;49.884;10.010;2023-06-22T19:45:01;101120;;;25.7;52
61571;BME280;47463;49.884;10.010;2023-06-22T19:50:01;101120;;;25.6;53
61571;BME280;47463;49.884;10.010;2023-06-22T19:55:01;101140;;;25.6;53
61571;BME280;47463;49.884;10.010;2023-06-22T20:00:01;101150;;;25.6;53
61571;BME280;47463;49.884;10.010;2023-06-22T20:05:03;101150;;;25.7;53
61571;BME280;47463;49.884;10.010;2023-06-22T20:10:09;101190;;;25.3;56
61571;BME280;47463;49.884;10.010;2023-06-22T20:15:12;101250;;;24.5;60
61571;BME280;47463;49.884;10.010;2023-06-22T20:20:01;101230;;;23.6;65
61571;BME280;47463;49.884;10.010;2023-06-22T20:25:01;101210;;;23.3;67
61571;BME280;47463;49.884;10.010;2023-06-22T20:30:11;101240;;;22.3;72
61571;BME280;47463;49.884;10.010;2023-06-22T20:35:01;101240;;;22.1;73
61571;BME280;47463;49.884;10.010;2023-06-22T20:40:01;101270;;;21.8;75
61571;BME280;47463;49.884;10.010;2023-06-22T20:45:01;101260;;;21.6;76
61571;BME280;47463;49.884;10.010;2023-06-22T20:50:01;101240;;;21.5;77
61571;BME280;47463;49.884;10.010;2023-06-22T20:55:01;101230;;;21.4;79
61571;BME280;47463;49.884;10.010;2023-06-22T21:00:01;101200;;;21.2;79
61571;BME280;47463;49.884;10.010;2023-06-22T21:05:01;101220;;;21.2;80
61571;BME280;47463;49.884;10.010;2023-06-22T21:10:01;101220;;;21.1;80
61571;BME280;47463;49.884;10.010;2023-06-22T21:15:01;101180;;;21;81
61571;BME280;47463;49.884;10.010;2023-06-22T21:20:01;101210;;;21;80
61571;BME280;47463;49.884;10.010;2023-06-22T21:25:03;101210;;;21;80
61571;BME280;47463;49.884;10.010;2023-06-22T21:30:01;101220;;;21.1;80
61571;BME280;47463;49.884;10.010;2023-06-22T21:35:01;101250;;;21.1;80
61571;BME280;47463;49.884;10.010;2023-06-22T21:40:01;101290;;;20.9;82
61571;BME280;47463;49.884;10.010;2023-06-22T21:45:01;101290;;;20.8;83
61571;BME280;47463;49.884;10.010;2023-06-22T21:50:01;101310;;;20.7;84
61571;BME280;47463;49.884;10.010;2023-06-22T21:55:01;101330;;;20.5;86
61571;BME280;47463;49.884;10.010;2023-06-22T22:00:01;101330;;;20.5;86
61571;BME280;47463;49.884;10.010;2023-06-22T22:05:01;101330;;;20.5;86
61571;BME280;47463;49.884;10.010;2023-06-22T22:10:01;101320;;;20.5;86
61571;BME280;47463;49.884;10.010;2023-06-22T22:15:01;101320;;;20.6;85
61571;BME280;47463;49.884;10.010;2023-06-22T22:20:01;101310;;;20.9;82
61571;BME280;47463;49.884;10.010;2023-06-22T22:25:01;101300;;;21;80
61571;BME280;47463;49.884;10.010;2023-06-22T22:30:01;101300;;;20.9;79
61571;BME280;47463;49.884;10.010;2023-06-22T22:35:01;101310;;;20.9;79
61571;BME280;47463;49.884;10.010;2023-06-22T22:40:01;101310;;;20.9;79
61571;BME280;47463;49.884;10.010;2023-06-22T22:45:01;101310;;;20.8;79
61571;BME280;47463;49.884;10.010;2023-06-22T22:50:01;101310;;;20.6;79
61571;BME280;47463;49.884;10.010;2023-06-22T22:55:01;101340;;;20.7;77
61571;BME280;47463;49.884;10.010;2023-06-22T23:00:01;101340;;;20.8;75
61571;BME280;47463;49.884;10.010;2023-06-22T23:05:01;101360;;;20.6;71
61571;BME280;47463;49.884;10.010;2023-06-22T23:10:01;101370;;;20.6;71
61571;BME280;47463;49.884;10.010;2023-06-22T23:15:01;101380;;;20.3;71
61571;BME280;47463;49.884;10.010;2023-06-22T23:20:01;101360;;;20.2;72
61571;BME280;47463;49.884;10.010;2023-06-22T23:25:01;101370;;;20.1;72
61571;BME280;47463;49.884;10.010;2023-06-22T23:30:01;101370;;;19.9;73
61571;BME280;47463;49.884;10.010;2023-06-22T23:35:01;101370;;;19.7;74
61571;BME280;47463;49.884;10.010;2023-06-22T23:40:01;101370;;;19.5;75
61571;BME280;47463;49.884;10.010;2023-06-22T23:45:01;101370;;;19.4;76
61571;BME280;47463;49.884;10.010;2023-06-22T23:50:01;101390;;;19.4;75
61571;BME280;47463;49.884;10.010;2023-06-22T23:55:01;101400;;;19.5;75
